Flight Track Log - Related Links

Times and Time Zones

All times are in EDT time to prevent confusion due to time zone crossing. See the CPT7773 flight status page for this flight to view local times or setup timezone preferences in your user account.

Time Position Orientation Groundspeed Altitude Reporting Facility
EDT Latitude Longitude Course Direction KTS MPH feet Rate Location/Type
Mon 07:54:17 PM 44.5153 -108.9164 99° East 121 139 7,600  Level Salt Lake Center
Mon 07:55:19 PM 44.5097 -108.8678 99° East 126 145 8,500 927 Climbing Salt Lake Center
Mon 07:56:20 PM 44.5061 -108.8050 95° East 137 158 9,500 829 Climbing Salt Lake Center
Mon 07:57:22 PM 44.4911 -108.7578 114° Southeast 139 160 10,200 585 Climbing Salt Lake Center
Mon 07:58:23 PM 44.4611 -108.7211 139° Southeast 132 152 10,700 341 Climbing Salt Lake Center
Mon 07:59:25 PM 44.4358 -108.6836 133° Southeast 133 153 10,900 146 Climbing Salt Lake Center
Mon 08:00:26 PM 44.4033 -108.6264 128° Southeast 150 173 11,000 49 Climbing Salt Lake Center
Mon 08:01:28 PM 44.3717 -108.5769 132° Southeast 165 190 11,000 -48 Level Salt Lake Center
Mon 08:02:30 PM 44.3389 -108.5264 132° Southeast 175 201 10,900  Descending Salt Lake Center
Mon 08:03:31 PM 44.3014 -108.4681 132° Southeast 180 207 11,000 49 Climbing Salt Lake Center
Mon 08:04:33 PM 44.2700 -108.4186 132° Southeast 179 206 11,000  Level Salt Lake Center
Mon 08:05:34 PM 44.2317 -108.3592 132° Southeast 182 209 11,000  Level Salt Lake Center
Mon 08:06:36 PM 44.1992 -108.3092 132° Southeast 183 211 11,000  Level Salt Lake Center
Mon 08:07:37 PM 44.1650 -108.2553 131° Southeast 175 201 11,000  Level Salt Lake Center
Mon 08:08:39 PM 44.1361 -108.2122 133° Southeast 167 192 11,000  Level Salt Lake Center
Mon 08:09:40 PM 44.1078 -108.1683 132° Southeast 163 188 11,000  Level Salt Lake Center
Mon 08:10:42 PM 44.0731 -108.1167 133° Southeast 162 186 11,000  Level Salt Lake Center
Mon 08:11:44 PM 44.0414 -108.0697 133° Southeast 167 192 11,000  Level Salt Lake Center
Mon 08:12:45 PM 44.0031 -108.0128 133° Southeast 175 201 11,000  Level Salt Lake Center
Mon 08:13:47 PM 43.9708 -107.9653 133° Southeast 177 204 11,000  Level Salt Lake Center
Mon 08:14:48 PM 43.9381 -107.9094 129° Southeast 172 198 11,000 -49 Level Salt Lake Center
Mon 08:15:50 PM 43.9117 -107.8553 124° Southeast 172 198 10,900  Descending Salt Lake Center
Mon 08:16:51 PM 43.8853 -107.8022 125° Southeast 174 200 11,000 49 Climbing Salt Lake Center
Mon 08:17:53 PM 43.8542 -107.7392 124° Southeast 176 203 11,000  Level Salt Lake Center
Mon 08:18:54 PM 43.8286 -107.6900 126° Southeast 172 198 11,000  Level Salt Lake Center
Mon 08:19:56 PM 43.7969 -107.6297 126° Southeast 171 197 11,000  Level Salt Lake Center
Mon 08:20:57 PM 43.7681 -107.5769 127° Southeast 175 201 11,000  Level Salt Lake Center
Mon 08:21:59 PM 43.7406 -107.5242 126° Southeast 177 204 11,000  Level Salt Lake Center
Mon 08:23:00 PM 43.7097 -107.4625 125° Southeast 175 201 11,000  Level Salt Lake Center
Mon 08:24:02 PM 43.6842 -107.4097 124° Southeast 174 200 11,000  Level Salt Lake Center
Mon 08:25:03 PM 43.6531 -107.3489 125° Southeast 173 199 11,000 -49 Level Salt Lake Center
Mon 08:26:05 PM 43.6250 -107.2983 127° Southeast 174 200 10,900  Descending Salt Lake Center
Mon 08:27:06 PM 43.5928 -107.2372 126° Southeast 175 201 11,000  Climbing Salt Lake Center
Mon 08:28:08 PM 43.5642 -107.1817 125° Southeast 180 207 10,900 -49 Descending Salt Lake Center
Mon 08:29:09 PM 43.5364 -107.1289 126° Southeast 180 207 10,900 71 Level Salt Lake Center
Mon 08:29:33 PM 43.5242 -107.1011 121° Southeast 179 206 11,000 70 Climbing Denver Center
Mon 08:30:35 PM 43.4981 -107.0486 124° Southeast 176 203 11,000 48 Level Denver Center
Mon 08:31:37 PM 43.4764 -107.0061 125° Southeast 173 199 11,100 48 Climbing Denver Center
Mon 08:32:39 PM 43.4400 -106.9372 126° Southeast 175 201 11,100 -48 Level Denver Center
Mon 08:33:41 PM 43.4064 -106.8767 127° Southeast 178 205 11,000  Descending Denver Center
Mon 08:34:43 PM 43.3656 -106.8478 153° Southeast 164 189 11,100 -244 Climbing Denver Center
Mon 08:35:44 PM 43.3267 -106.8131 147° Southeast 173 199 10,500 -634 Descending Denver Center
Mon 08:36:46 PM 43.2789 -106.7747 150° Southeast 177 204 9,800 -387 Descending Denver Center
Mon 08:37:48 PM 43.2431 -106.7364 142° Southeast 173 199 9,700 -97 Descending Denver Center
Mon 08:38:50 PM 43.2025 -106.6939 143° Southeast 166 191 9,600 -339 Descending Denver Center
Mon 08:39:52 PM 43.1686 -106.6556 140° Southeast 165 190 9,000 -537 Descending Denver Center
Mon 08:40:53 PM 43.1336 -106.6111 137° Southeast 172 198 8,500 -634 Descending Denver Center
Mon 08:41:55 PM 43.0903 -106.5633 141° Southeast 177 204 7,700 -581 Descending Denver Center
Mon 08:42:57 PM 43.0519 -106.5283 146° Southeast 175 201 7,300 -339 Descending Denver Center
Mon 08:43:59 PM 43.0075 -106.4928 150° Southeast 169 194 7,000 -194 Descending Denver Center
Mon 08:45:01 PM 42.9722 -106.4597 146° Southeast 169 194 6,900 -97 Descending Denver Center
Mon 08:47:00 PM 42.9025 -106.4475 216° Southwest  Level FlightAware Approximate
Mon 08:54:00 PM 42.9000 -106.4500 216° Southwest  Level FlightAware Approximate

Login

Don't have an account? Register now (free) for customized features, flight alerts, and more!